Flight Track Log - Related Links

Times and Time Zones

All times are in EDT time to prevent confusion due to time zone crossing. See the AAL832 flight status page for this flight to view local times or setup timezone preferences in your user account.

Time Position Orientation Groundspeed Altitude Reporting Facility
EDT Latitude Longitude Course Direction KTS MPH feet Rate Location/Type
Fri 12:48:00 34.1248 -118.0838 59° Northeast  Level FlightAware Approximate
Fri 12:49:00 34.1885 -117.9563 59° Northeast  Level FlightAware Approximate
Fri 12:50:00 34.2523 -117.8287 59° Northeast  Level FlightAware Approximate
Fri 12:50:22 33.8140 -118.4960 59° Northeast 285 328 7,300  Level FlightAware ADS-B
Fri 12:50:34 33.8450 -118.4800 23° Northeast 298 343 8,500 3,263 Climbing FlightAware ADS-B
Fri 12:51:19 33.9170 -118.4410 24° Northeast 309 356 10,400 2,164 Climbing FlightAware ADS-B
Fri 12:51:35 33.9360 -118.4240 37° Northeast 316 364 10,700 1,966 Climbing FlightAware ADS-B
Fri 12:52:17 33.9720 -118.3640 54° Northeast 322 371 12,300 2,250 Climbing FlightAware ADS-B
Fri 12:52:55 34.0040 -118.3070 56° Northeast 330 380 13,700 1,756 Climbing FlightAware ADS-B
Fri 12:53:39 34.0440 -118.2360 56° Northeast 365 420 14,700 1,636 Climbing FlightAware ADS-B
Fri 12:54:23 34.0880 -118.1600 55° Northeast 381 438 16,100 1,908 Climbing FlightAware ADS-B
Fri 12:57:38 34.2940 -117.7940 56° Northeast 420 483 22,300 1,873 Climbing FlightAware ADS-B
Fri 12:58:20 34.3410 -117.7100 56° Northeast 426 490 23,500 1,538 Climbing FlightAware ADS-B
Fri 12:58:56 34.3810 -117.6390 56° Northeast 435 501 24,300 1,425 Climbing FlightAware ADS-B
Fri 12:59:40 34.4280 -117.5530 56° Northeast 442 509 25,400 1,353 Climbing FlightAware ADS-B
Fri 13:01:49 34.5830 -117.2800 55° Northeast 464 534 28,200 1,267 Climbing FlightAware ADS-B
Fri 13:02:40 34.6550 -117.1820 48° Northeast 470 541 29,200 1,451 Climbing FlightAware ADS-B
Fri 13:03:20 34.7140 -117.1000 49° Northeast 464 534 30,400 1,624 Climbing FlightAware ADS-B
Fri 13:04:05 34.7750 -117.0160 49° Northeast 458 527 31,500 1,390 Climbing FlightAware ADS-B
Fri 13:04:42 34.8280 -116.9420 49° Northeast 457 526 32,300 868 Climbing FlightAware ADS-B
Fri 13:08:07 35.1090 -116.5500 49° Northeast 452 520 35,000 638 Climbing FlightAware ADS-B
Fri 13:08:56 35.1680 -116.4710 48° Northeast 452 520 35,000  Level FlightAware ADS-B
Fri 13:09:32 35.2110 -116.4120 48° Northeast 452 520 35,000  Level FlightAware ADS-B
Fri 13:12:04 35.3910 -116.1660 48° Northeast 452 520 35,000  Level FlightAware ADS-B
Fri 13:13:06 35.5110 -115.9820 51° Northeast 448 516 35,000  Level FlightAware ADS-B
Fri 13:13:46 35.5710 -115.8960 49° Northeast 446 513 35,000  Level FlightAware ADS-B
Fri 13:14:29 35.6220 -115.8230 49° Northeast 444 511 35,000  Level FlightAware ADS-B
Fri 13:14:53 35.6560 -115.7740 49° Northeast 444 511 35,000  Level FlightAware ADS-B
Fri 13:15:28 35.6969 -115.7139 49° Northeast 443 510 35,000  Level Salt Lake Center
Fri 13:15:58 35.7300 -115.6672 49° Northeast 437 503 35,000  Level Los Angeles Center
Fri 13:17:01 35.8244 -115.5297 50° Northeast 439 505 35,000  Level Los Angeles Center
Fri 13:18:03 35.9033 -115.4153 50° Northeast 440 506 35,000  Level Los Angeles Center
Fri 13:19:05 35.9833 -115.2992 50° Northeast 445 512 35,000  Level Los Angeles Center
Fri 13:24:42 36.4590 -114.6750 50° Northeast 454 522 35,000  Level FlightAware ADS-B
Fri 13:25:17 36.5128 -114.6017 50° Northeast 455 524 35,000  Level Los Angeles Center
Fri 13:26:19 36.5819 -114.5114 46° Northeast 452 520 35,000  Level Los Angeles Center
Fri 13:27:22 36.7019 -114.3517 47° Northeast 451 519 35,000  Level Los Angeles Center
Fri 13:33:13 37.0950 -113.5810 47° Northeast 449 517 35,000  Level FlightAware ADS-B
Fri 13:33:52 37.1380 -113.4910 59° Northeast 449 517 35,000  Level FlightAware ADS-B
Fri 13:34:47 37.1920 -113.3760 59° Northeast 449 517 35,000  Level FlightAware ADS-B
Fri 13:37:11 37.3410 -113.0590 59° Northeast 448 516 35,000  Level FlightAware ADS-B
Fri 13:37:49 37.3760 -112.9870 59° Northeast 448 516 35,000  Level FlightAware ADS-B
Fri 13:38:36 37.4180 -112.8970 60° Northeast 448 516 35,000  Level FlightAware ADS-B
Fri 13:39:12 37.4510 -112.8290 59° Northeast 448 516 35,000  Level FlightAware ADS-B
Fri 13:39:59 37.4940 -112.7390 59° Northeast 448 516 35,000  Level FlightAware ADS-B
Fri 13:42:59 37.6570 -112.3960 59° Northeast 448 516 35,000  Level FlightAware ADS-B
Fri 13:43:37 37.6910 -112.3240 59° Northeast 448 516 35,000  Level FlightAware ADS-B
Fri 13:44:25 37.7350 -112.2320 59° Northeast 448 516 35,000 360 Level FlightAware ADS-B
Fri 13:49:10 38.0746 -111.3720 63° Northeast 461 531 37,000 376 Climbing FlightAware ADS-B
Fri 13:49:44 38.1192 -111.2980 53° Northeast 461 531 37,000  Level FlightAware ADS-B
Fri 13:50:17 38.1624 -111.2270 52° Northeast 462 532 37,000  Level FlightAware ADS-B
Fri 13:51:19 38.2423 -111.0950 52° Northeast 464 534 37,000  Level FlightAware ADS-B
Fri 13:51:52 38.2855 -111.0240 52° Northeast 464 534 37,000  Level FlightAware ADS-B
Fri 13:52:52 38.3550 -110.9070 53° Northeast 465 535 37,000  Level FlightAware ADS-B
Fri 13:53:45 38.4310 -110.7810 52° Northeast 464 534 37,000  Level FlightAware ADS-B
Fri 13:54:25 38.4820 -110.6960 53° Northeast 464 534 37,000  Level FlightAware ADS-B
Fri 13:56:41 38.6510 -110.4140 52° Northeast 461 531 37,000  Level FlightAware ADS-B
Fri 13:57:26 38.7160 -110.3010 54° Northeast 457 526 37,000  Level FlightAware ADS-B
Fri 13:58:24 38.7900 -110.1750 53° Northeast 460 529 37,000  Level FlightAware ADS-B
Fri 13:59:23 38.8640 -110.0490 53° Northeast 462 532 37,000  Level FlightAware ADS-B
Fri 13:59:58 38.9030 -109.9830 53° Northeast 463 533 37,000  Level FlightAware ADS-B
Fri 14:01:53 39.0580 -109.7180 53° Northeast 463 533 37,000  Level FlightAware ADS-B
Fri 14:02:32 39.1070 -109.6320 54° Northeast 464 534 37,000  Level FlightAware ADS-B
Fri 14:03:14 39.1620 -109.5370 53° Northeast 464 534 37,000  Level FlightAware ADS-B
Fri 14:04:00 39.2210 -109.4340 54° Northeast 468 539 37,000  Level FlightAware ADS-B
Fri 14:04:41 39.2730 -109.3440 53° Northeast 467 537 37,000  Level FlightAware ADS-B
Fri 14:06:17 39.3970 -109.1270 53° Northeast 467 537 37,000  Level FlightAware ADS-B
Fri 14:07:29 39.4880 -108.9650 54° Northeast 467 537 37,000  Level FlightAware ADS-B
Fri 14:08:08 39.5370 -108.8790 54° Northeast 468 539 37,000  Level FlightAware ADS-B
Fri 14:08:51 39.5930 -108.7790 54° Northeast 469 540 37,000  Level FlightAware ADS-B
Fri 14:09:33 39.6470 -108.6840 54° Northeast 470 541 37,000  Level FlightAware ADS-B
Fri 14:10:27 39.7160 -108.5610 54° Northeast 467 537 37,000  Level FlightAware ADS-B
Fri 14:11:58 39.8110 -108.3900 54° Northeast 467 537 37,000  Level FlightAware ADS-B
Fri 14:12:46 39.8910 -108.2450 54° Northeast 470 541 37,000  Level FlightAware ADS-B
Fri 14:13:32 39.9460 -108.1470 54° Northeast 471 542 37,000  Level FlightAware ADS-B
Fri 14:14:09 39.9910 -108.0650 54° Northeast 471 542 37,000  Level FlightAware ADS-B
Fri 14:19:05 40.3160 -107.3580 59° Northeast 477 549 37,000  Level FlightAware ADS-B
Fri 14:19:53 40.3750 -107.2210 60° Northeast 477 549 37,000  Level FlightAware ADS-B
Fri 14:23:48 40.6290 -106.6310 60° Northeast 479 551 37,000  Level FlightAware ADS-B
Fri 14:24:39 40.6910 -106.4810 61° Northeast 481 554 37,000  Level FlightAware ADS-B
Fri 14:27:27 40.8700 -106.0520 61° Northeast 479 551 37,000  Level FlightAware ADS-B
Fri 14:28:13 40.9190 -105.9340 61° Northeast 477 549 37,000  Level FlightAware ADS-B
Fri 14:28:58 40.9640 -105.8250 61° Northeast 475 547 37,000  Level FlightAware ADS-B
Fri 14:29:41 41.0120 -105.7120 61° Northeast 475 547 37,000  Level FlightAware ADS-B
Fri 14:32:37 41.1964 -105.2580 62° Northeast 480 552 37,000  Level FlightAware ADS-B
Fri 14:33:08 41.2281 -105.1800 62° Northeast 480 552 37,000  Level FlightAware ADS-B
Fri 14:33:40 41.2619 -105.0960 62° Northeast 480 552 37,000  Level FlightAware ADS-B
Fri 14:34:11 41.2940 -105.0160 62° Northeast 481 554 37,000  Level FlightAware ADS-B
Fri 14:34:42 41.3266 -104.9350 62° Northeast 481 554 37,000  Level FlightAware ADS-B
Fri 14:35:27 41.3746 -104.8150 62° Northeast 483 556 37,000  Level FlightAware ADS-B
Fri 14:36:00 41.4084 -104.7300 62° Northeast 484 557 37,000  Level FlightAware ADS-B
Fri 14:36:30 41.4401 -104.6500 62° Northeast 484 557 37,000  Level FlightAware ADS-B
Fri 14:37:01 41.4723 -104.5690 62° Northeast 484 557 37,000  Level FlightAware ADS-B
Fri 14:37:32 41.5038 -104.4890 62° Northeast 484 557 37,000  Level FlightAware ADS-B
Fri 14:38:07 41.5409 -104.3950 62° Northeast 484 557 37,000  Level FlightAware ADS-B
Fri 14:38:38 41.5723 -104.3150 62° Northeast 483 556 37,000  Level FlightAware ADS-B
Fri 14:38:56 41.5918 -104.2670 61° Northeast 481 554 37,000  Level FlightAware ADS-B
Fri 14:39:08 41.6070 -104.2380 55° Northeast 474 545 37,000  Level FlightAware ADS-B
Fri 14:39:25 41.6317 -104.2030 47° Northeast 465 535 37,000  Level FlightAware ADS-B
Fri 14:39:38 41.6535 -104.1810 37° Northeast 454 522 37,000  Level FlightAware ADS-B
Fri 14:39:43 41.6636 -104.1730 31° Northeast 451 519 37,000  Level FlightAware ADS-B
Fri 14:39:51 41.6788 -104.1620 28° Northeast 444 511 37,000  Level FlightAware ADS-B
Fri 14:40:23 41.7386 -104.1320 21° North 436 502 37,000  Level FlightAware ADS-B
Fri 14:40:56 41.8004 -104.1010 21° North 433 498 37,000  Level FlightAware ADS-B
Fri 14:41:34 41.8709 -104.0660 20° North 431 496 37,000  Level FlightAware ADS-B
Fri 14:42:27 41.9707 -104.0160 20° North 432 497 37,000  Level FlightAware ADS-B
Fri 14:42:58 42.0278 -103.9880 20° North 428 493 37,000  Level FlightAware ADS-B
Fri 14:43:28 42.0846 -103.9600 20° North 426 490 37,000  Level FlightAware ADS-B
Fri 14:43:59 42.1421 -103.9320 20° North 427 491 37,000  Level FlightAware ADS-B
Fri 14:44:29 42.1975 -103.9050 20° North 426 490 37,000  Level FlightAware ADS-B
Fri 14:45:00 42.2531 -103.8770 20° North 425 489 37,000  Level FlightAware ADS-B
Fri 14:45:30 42.3098 -103.8490 20° North 424 488 37,000  Level FlightAware ADS-B
Fri 14:48:30 42.6326 -103.6580 24° Northeast 448 516 37,000  Level FlightAware ADS-B
Fri 14:49:11 42.6835 -103.5630 54° Northeast 456 525 37,000  Level FlightAware ADS-B
Fri 14:49:43 42.7213 -103.4900 55° Northeast 458 527 37,000  Level FlightAware ADS-B
Fri 14:49:58 42.7354 -103.4510 64° Northeast 467 537 37,000  Level FlightAware ADS-B
Fri 14:50:08 42.7417 -103.4230 73° East 473 544 37,000  Level FlightAware ADS-B
Fri 14:50:12 42.7435 -103.4110 78° East 475 547 37,000  Level FlightAware ADS-B
Fri 14:50:21 42.7464 -103.3830 82° East 478 550 37,000  Level FlightAware ADS-B
Fri 14:50:35 42.7477 -103.3390 88° East 483 556 37,000  Level FlightAware ADS-B
Fri 14:51:06 42.7495 -103.2480 88° East 484 557 37,000  Level FlightAware ADS-B
Fri 14:51:36 42.7515 -103.1560 88° East 484 557 37,000  Level FlightAware ADS-B
Fri 14:52:06 42.7536 -103.0640 88° East 485 558 37,000  Level FlightAware ADS-B
Fri 14:52:36 42.7556 -102.9720 88° East 486 559 37,000  Level FlightAware ADS-B
Fri 14:53:08 42.7576 -102.8750 88° East 486 559 37,000  Level FlightAware ADS-B
Fri 14:53:42 42.7597 -102.7720 88° East 487 560 37,000  Level FlightAware ADS-B
Fri 14:54:23 42.7621 -102.6470 88° East 486 559 37,000  Level FlightAware ADS-B
Fri 14:55:01 42.7643 -102.5300 88° East 486 559 37,000  Level FlightAware ADS-B
Fri 14:55:55 42.7672 -102.3680 89° East 486 559 37,000  Level FlightAware ADS-B
Fri 14:56:27 42.7678 -102.2806 89° East 486 559 37,000  Level Denver Center
Fri 14:57:29 42.7706 -102.1056 89° East 485 558 37,000  Level Denver Center
Fri 14:58:31 42.7731 -101.9025 89° East 483 556 37,000  Level Denver Center
Fri 14:59:33 42.7756 -101.7139 89° East 478 550 37,000  Level Denver Center
Fri 15:00:37 42.7764 -101.5400 90° East 479 551 37,000  Level Denver Center
Fri 15:01:39 42.7781 -101.3433 89° East 474 545 37,000  Level Denver Center
Fri 15:02:41 42.7789 -101.1631 90° East 475 547 37,000  Level Denver Center
Fri 15:03:43 42.7800 -100.9831 89° East 477 549 37,000  Level Denver Center
Fri 15:04:45 42.7797 -100.8011 90° East 480 552 37,000  Level Denver Center
Fri 15:05:47 42.7808 -100.6219 89° East 477 549 37,000  Level Denver Center
Fri 15:11:00 42.7776 -99.6285 89° East 486 559 37,000  Level FlightAware ADS-B
Fri 15:11:42 42.7766 -99.5022 91° East 486 559 37,000  Level FlightAware ADS-B
Fri 15:12:13 42.7756 -99.4058 91° East 486 559 37,000  Level FlightAware ADS-B
Fri 15:12:43 42.7746 -99.3130 91° East 487 560 37,000  Level FlightAware ADS-B
Fri 15:13:14 42.7736 -99.2209 91° East 488 562 37,000  Level FlightAware ADS-B
Fri 15:13:44 42.7725 -99.1281 91° East 489 563 37,000  Level FlightAware ADS-B
Fri 15:14:22 42.7716 -99.0572 91° East 489 563 37,000  Level FlightAware ADS-B
Fri 15:14:49 42.7697 -98.9266 91° East 490 564 37,000  Level FlightAware ADS-B
Fri 15:15:07 42.7660 -98.8731 95° East 494 568 37,000  Level FlightAware ADS-B
Fri 15:15:19 42.7611 -98.8351 100° East 496 571 37,000  Level FlightAware ADS-B
Fri 15:15:37 42.7505 -98.7810 105° East 499 574 37,000  Level FlightAware ADS-B
Fri 15:16:07 42.7299 -98.6913 107° East 500 575 37,000  Level FlightAware ADS-B
Fri 15:16:37 42.7093 -98.6014 107° East 502 578 37,000  Level FlightAware ADS-B
Fri 15:17:07 42.6884 -98.5113 107° East 503 579 37,000  Level FlightAware ADS-B
Fri 15:17:38 42.6668 -98.4184 108° East 503 579 37,000  Level FlightAware ADS-B
Fri 15:18:33 42.6279 -98.2519 108° East 503 579 37,000  Level FlightAware ADS-B
Fri 15:19:05 42.6056 -98.1573 108° East 506 582 37,000  Level FlightAware ADS-B
Fri 15:19:35 42.5841 -98.0656 108° East 506 582 37,000  Level FlightAware ADS-B
Fri 15:20:05 42.5628 -97.9751 108° East 506 582 37,000  Level FlightAware ADS-B
Fri 15:20:36 42.5405 -97.8810 108° East 507 583 37,000  Level FlightAware ADS-B
Fri 15:21:07 42.5186 -97.7892 108° East 508 585 37,000  Level FlightAware ADS-B
Fri 15:21:38 42.4964 -97.6969 108° East 508 585 37,000  Level FlightAware ADS-B
Fri 15:22:19 42.4660 -97.5704 108° East 506 582 37,000  Level FlightAware ADS-B
Fri 15:25:03 42.3474 -97.0838 108° East 501 577 37,000  Level FlightAware ADS-B
Fri 15:25:33 42.3252 -96.9939 108° East 500 575 37,000  Level FlightAware ADS-B
Fri 15:26:03 42.3030 -96.9048 109° East 500 575 37,000  Level FlightAware ADS-B
Fri 15:26:33 42.2811 -96.8164 108° East 499 574 37,000  Level FlightAware ADS-B
Fri 15:27:04 42.2588 -96.7271 109° East 500 575 37,000  Level FlightAware ADS-B
Fri 15:27:34 42.2364 -96.6377 109° East 502 578 37,000  Level FlightAware ADS-B
Fri 15:28:04 42.2141 -96.5487 109° East 503 579 37,000  Level FlightAware ADS-B
Fri 15:28:35 42.1912 -96.4577 109° East 504 580 37,000  Level FlightAware ADS-B
Fri 15:29:11 42.1635 -96.3488 109° East 508 585 37,000  Level FlightAware ADS-B
Fri 15:29:41 42.1404 -96.2579 109° East 517 595 37,000  Level FlightAware ADS-B
Fri 15:30:11 42.1169 -96.1656 109° East 519 597 37,000  Level FlightAware ADS-B
Fri 15:30:42 42.0931 -96.0731 109° East 521 600 37,000  Level FlightAware ADS-B
Fri 15:31:12 42.0692 -95.9803 109° East 521 600 37,000  Level FlightAware ADS-B
Fri 15:31:42 42.0453 -95.8882 109° East 521 600 37,000  Level FlightAware ADS-B
Fri 15:32:12 42.0213 -95.7964 109° East 521 600 37,000  Level FlightAware ADS-B
Fri 15:32:42 41.9974 -95.7049 109° East 522 601 37,000  Level FlightAware ADS-B
Fri 15:33:12 41.9733 -95.6130 109° East 522 601 37,000  Level FlightAware ADS-B
Fri 15:33:43 41.9491 -95.5208 109° East 523 602 37,000  Level FlightAware ADS-B
Fri 15:34:13 41.9246 -95.4276 109° East 522 601 37,000  Level FlightAware ADS-B
Fri 15:34:43 41.9005 -95.3361 109° East 522 601 37,000  Level FlightAware ADS-B
Fri 15:35:13 41.8761 -95.2439 110° East 523 602 37,000  Level FlightAware ADS-B
Fri 15:35:44 41.8516 -95.1523 110° East 523 602 37,000  Level FlightAware ADS-B
Fri 15:36:14 41.8265 -95.0588 110° East 524 603 37,000  Level FlightAware ADS-B
Fri 15:36:45 41.8012 -94.9653 110° East 524 603 37,000  Level FlightAware ADS-B
Fri 15:37:16 41.7759 -94.8716 110° East 526 605 37,000  Level FlightAware ADS-B
Fri 15:37:46 41.7510 -94.7796 110° East 527 606 37,000  Level FlightAware ADS-B
Fri 15:38:16 41.7261 -94.6877 110° East 529 609 37,000  Level FlightAware ADS-B
Fri 15:38:46 41.7010 -94.5955 110° East 531 611 37,000  Level FlightAware ADS-B
Fri 15:39:16 41.6755 -94.5022 110° East 532 612 37,000  Level FlightAware ADS-B
Fri 15:39:46 41.6499 -94.4088 110° East 532 612 37,000  Level FlightAware ADS-B
Fri 15:40:17 41.6241 -94.3154 110° East 534 615 37,000  Level FlightAware ADS-B
Fri 15:40:47 41.5982 -94.2219 110° East 534 615 37,000  Level FlightAware ADS-B
Fri 15:41:18 41.5718 -94.1271 110° East 535 616 37,000  Level FlightAware ADS-B
Fri 15:41:48 41.5461 -94.0343 110° East 536 617 37,000  Level FlightAware ADS-B
Fri 15:42:18 41.5200 -93.9407 110° East 538 619 37,000  Level FlightAware ADS-B
Fri 15:42:48 41.4939 -93.8476 110° East 539 620 37,000  Level FlightAware ADS-B
Fri 15:43:19 41.4665 -93.7500 111° Southeast 540 621 37,000  Level FlightAware ADS-B
Fri 15:43:41 41.4491 -93.6827 109° East 537 618 37,000  Level FlightAware ADS-B
Fri 15:43:52 41.4424 -93.6467 104° East 534 615 37,000  Level FlightAware ADS-B
Fri 15:44:01 41.4382 -93.6175 101° East 531 611 37,000  Level FlightAware ADS-B
Fri 15:44:12 41.4347 -93.5821 98° East 528 608 37,000  Level FlightAware ADS-B
Fri 15:44:22 41.4329 -93.5495 94° East 525 604 37,000  Level FlightAware ADS-B
Fri 15:44:29 41.4326 -93.5283 91° East 522 601 37,000  Level FlightAware ADS-B
Fri 15:44:42 41.4341 -93.4851 87° East 517 595 37,000  Level FlightAware ADS-B
Fri 15:44:57 41.4389 -93.4387 82° East 510 587 37,000  Level FlightAware ADS-B
Fri 15:45:28 41.4563 -93.3481 76° East 503 579 37,000 -295 Level FlightAware ADS-B
Fri 15:45:58 41.4751 -93.2566 75° East 497 572 36,700 -700 Descending FlightAware ADS-B
Fri 15:46:28 41.4883 -93.1878 75° East 497 572 36,300 -913 Descending Chicago Center
Fri 15:47:30 41.5239 -93.0169 74° East 483 556 35,300 -919 Descending Chicago Center
Fri 15:48:32 41.5594 -92.8442 75° East 487 560 34,400 -772 Descending Chicago Center
Fri 15:54:22 41.7550 -91.8470 75° East 500 575 30,000 -859 Descending FlightAware ADS-B
Fri 15:55:03 41.7840 -91.6990 75° East 499 574 28,800 -807 Descending FlightAware ADS-B
Fri 15:58:05 41.9750 -91.2020 63° Northeast 462 532 27,000 -466 Descending FlightAware ADS-B
Fri 15:58:55 42.0220 -91.0820 62° Northeast 461 531 27,000  Level FlightAware ADS-B
Fri 15:59:36 42.0650 -90.9700 63° Northeast 461 531 27,000  Level FlightAware ADS-B
Fri 16:00:25 42.1130 -90.8470 62° Northeast 460 529 27,000  Level FlightAware ADS-B
Fri 16:01:15 42.1610 -90.7210 63° Northeast 461 531 27,000  Level FlightAware ADS-B
Fri 16:01:55 42.2010 -90.6180 62° Northeast 464 534 27,000  Level FlightAware ADS-B
Fri 16:02:39 42.2450 -90.5010 63° Northeast 464 534 27,000  Level FlightAware ADS-B
Fri 16:03:14 42.2810 -90.4090 62° Northeast 472 543 27,000  Level FlightAware ADS-B
Fri 16:04:04 42.3300 -90.2800 63° Northeast 478 550 27,000 -270 Level FlightAware ADS-B
Fri 16:04:43 42.3690 -90.1750 63° Northeast 470 541 26,600 -1,161 Descending FlightAware ADS-B
Fri 16:05:37 42.4210 -90.0390 63° Northeast 459 528 25,200 -1,546 Descending FlightAware ADS-B
Fri 16:06:20 42.4620 -89.9280 63° Northeast 451 519 24,100 -1,500 Descending FlightAware ADS-B
Fri 16:07:05 42.4930 -89.8090 71° East 450 518 23,000 -1,518 Descending FlightAware ADS-B
Fri 16:07:43 42.4890 -89.7020 93° East 449 517 22,000 -1,571 Descending FlightAware ADS-B
Fri 16:08:29 42.4770 -89.5760 97° East 447 514 20,800 -1,533 Descending FlightAware ADS-B
Fri 16:09:13 42.4660 -89.4530 97° East 436 502 19,700 -1,481 Descending FlightAware ADS-B
Fri 16:09:50 42.4570 -89.3530 97° East 431 496 18,800 -1,550 Descending FlightAware ADS-B
Fri 16:11:13 42.4370 -89.1410 97° East 397 457 16,600 -1,594 Descending FlightAware ADS-B
Fri 16:11:58 42.4270 -89.0320 97° East 380 437 15,400 -1,295 Descending FlightAware ADS-B
Fri 16:12:41 42.4180 -88.9350 97° East 346 398 14,700 -1,000 Descending FlightAware ADS-B
Fri 16:13:22 42.4100 -88.8500 97° East 328 377 14,000 -1,256 Descending FlightAware ADS-B
Fri 16:14:07 42.4010 -88.7600 98° East 323 372 12,900 -1,518 Descending FlightAware ADS-B
Fri 16:14:45 42.3930 -88.6840 98° East 319 367 11,900 -1,412 Descending FlightAware ADS-B
Fri 16:15:49 42.3810 -88.5600 97° East 311 358 10,500 -903 Descending FlightAware ADS-B
Fri 16:16:38 42.3650 -88.4670 103° East 312 359 10,200 -563 Descending FlightAware ADS-B
Fri 16:16:53 42.3570 -88.4400 112° Southeast 311 358 9,900 -1,500 Descending FlightAware ADS-B
Fri 16:17:14 42.3450 -88.4020 113° Southeast 316 364 9,300 -1,500 Descending FlightAware ADS-B
Fri 16:17:49 42.3150 -88.3470 126° Southeast 312 359 8,500 -1,377 Descending FlightAware ADS-B
Fri 16:18:15 42.2920 -88.3080 129° Southeast 307 353 7,900 -1,286 Descending FlightAware ADS-B
Fri 16:18:45 42.2650 -88.2630 129° Southeast 307 353 7,300 -600 Descending FlightAware ADS-B
Fri 16:19:15 42.2390 -88.2190 129° Southeast 303 349 7,300  Level FlightAware ADS-B
Fri 16:19:38 42.2280 -88.1790 110° East 303 349 7,300  Level FlightAware ADS-B
Fri 16:21:02 42.2040 -88.0220 102° East 303 349 7,300  Level FlightAware ADS-B
Fri 16:21:35 42.1740 -87.9770 132° Southeast 298 343 7,300  Level FlightAware ADS-B
Fri 16:21:59 42.1510 -87.9470 136° Southeast 275 316 7,300  Level FlightAware ADS-B
Fri 16:22:30 42.1260 -87.9090 132° Southeast 262 302 7,300  Level FlightAware ADS-B
Fri 16:22:52 42.1100 -87.8810 128° Southeast 240 276 7,300  Level FlightAware ADS-B
Fri 16:23:12 42.0990 -87.8570 122° Southeast 227 261 7,300  Level FlightAware ADS-B
Fri 16:23:23 42.0980 -87.8410 95° East 223 257 7,300 -973 Level FlightAware ADS-B
Fri 16:23:49 42.0970 -87.8050 92° East 225 259 6,700 -1,269 Descending FlightAware ADS-B
Fri 16:24:15 42.0970 -87.7700 90° East 226 260 6,200 -1,119 Descending FlightAware ADS-B
Fri 16:24:48 42.0970 -87.7230 90° East 220 253 5,600 -1,067 Descending FlightAware ADS-B
Fri 16:25:00 42.0970 -87.7080 90° East 218 251 5,400 -1,292 Descending FlightAware ADS-B
Fri 16:25:53 42.0600 -87.6690 142° Southeast 210 242 4,200 -1,333 Descending FlightAware ADS-B
Fri 16:26:21 42.0340 -87.6640 172° South 208 239 3,600 -1,080 Descending FlightAware ADS-B
Fri 16:26:43 42.0170 -87.6740 204° Southwest 183 211 3,300 -529 Descending FlightAware ADS-B
Fri 16:26:55 42.0120 -87.6850 239° Southwest 174 200 3,300  Level FlightAware ADS-B
Fri 16:27:19 42.0020 -87.7070 239° Southwest 168 193 3,300 -111 Level FlightAware ADS-B
Fri 16:27:49 41.9900 -87.7330 238° Southwest 171 197 3,200 -522 Descending FlightAware ADS-B
Fri 16:28:05 41.9850 -87.7490 247° West 167 192 2,900 -938 Descending FlightAware ADS-B
Fri 16:28:21 41.9840 -87.7650 265° West 163 188 2,700 -878 Descending FlightAware ADS-B
Fri 16:28:46 41.9840 -87.7910 270° West 160 184 2,300 -889 Descending FlightAware ADS-B
Fri 16:29:15 41.9840 -87.8170 270° West 144 166 1,900 -769 Descending FlightAware ADS-B
Fri 16:29:25 41.9840 -87.8260 270° West 143 165 1,800 -632 Descending FlightAware ADS-B
Fri 16:29:53 41.9840 -87.8520 270° West 150 173 1,500 -643 Descending FlightAware ADS-B

Login

Don't have an account? Register now (free) for customized features, flight alerts, and more!